Time;durP1;ratioP1;P1;durP2;ratioP2;P2;SDS_P1;SDS_P2;PMS_P1;PMS_P2;Temp;Humidity;BMP_temperature;BMP_pressure;BME280_temperature;BME280_humidity;BME280_pressure;Samples;Min_cycle;Max_cycle;Signal;HPM_P1;HPM_P2
2022/09/06 00:01:25;;;;;;;6.90;2.70;;;;;;;14.88;62.12;99682.08;105966;1277;22574;-88
2022/09/06 00:03:55;;;;;;;6.70;2.70;;;;;;;14.90;62.10;99683.80;105843;1279;22563;-92
2022/09/06 00:06:22;;;;;;;7.80;2.90;;;;;;;14.93;62.13;99689.83;105793;1279;24229;-91
2022/09/06 00:08:52;;;;;;;9.30;3.00;;;;;;;14.95;62.07;99700.40;105947;1277;22651;-90
2022/09/06 00:11:32;;;;;;;7.20;2.70;;;;;;;14.99;62.18;99701.71;105660;1277;22957;-91
2022/09/06 00:14:06;;;;;;;13.50;2.90;;;;;;;15.01;62.12;99702.41;105887;1276;24259;-89
2022/09/06 00:16:39;;;;;;;8.00;2.80;;;;;;;15.03;62.07;99706.08;105911;1279;22594;-89
2022/09/06 00:19:06;;;;;;;10.40;3.00;;;;;;;15.00;62.25;99705.20;105940;1276;22607;-86
2022/09/06 00:21:34;;;;;;;12.50;3.00;;;;;;;14.95;62.62;99703.45;105848;1279;22700;-88
2022/09/06 00:24:04;;;;;;;7.00;2.60;;;;;;;14.88;62.72;99699.02;104825;1276;1595035;-88
2022/09/06 00:26:40;;;;;;;12.60;3.40;;;;;;;14.79;62.81;99698.23;106030;1276;23284;-87
2022/09/06 00:29:12;;;;;;;11.30;3.10;;;;;;;14.72;63.03;99694.13;105864;1276;22803;-87
2022/09/06 00:31:44;;;;;;;9.70;3.00;;;;;;;14.67;63.09;99691.73;105841;1279;22538;-89
2022/09/06 00:34:19;;;;;;;11.60;2.80;;;;;;;14.63;63.29;99686.84;105845;1277;24222;-88
2022/09/06 00:36:51;;;;;;;11.30;3.30;;;;;;;14.60;63.37;99679.31;105969;1277;22711;-88
2022/09/06 00:39:21;;;;;;;10.40;3.00;;;;;;;14.59;63.42;99676.92;105834;1276;22538;-89
2022/09/06 00:41:48;;;;;;;11.60;3.00;;;;;;;14.58;63.44;99675.07;105951;1276;22600;-88
2022/09/06 00:44:18;;;;;;;8.70;3.30;;;;;;;14.57;63.59;99676.95;105973;1277;22540;-88
2022/09/06 00:46:52;;;;;;;8.30;2.90;;;;;;;14.55;63.68;99679.69;105962;1277;22557;-90
2022/09/06 00:49:33;;;;;;;10.40;3.10;;;;;;;14.52;63.75;99678.89;105855;1279;22563;-88
2022/09/06 00:52:08;;;;;;;8.90;3.00;;;;;;;14.46;63.68;99679.17;106027;1276;24208;-89
2022/09/06 00:54:39;;;;;;;9.20;3.10;;;;;;;14.41;63.81;99680.14;105818;1277;22573;-91
2022/09/06 00:57:12;;;;;;;10.00;3.10;;;;;;;14.36;63.76;99679.09;106011;1276;25791;-90
2022/09/06 00:59:41;;;;;;;10.10;3.20;;;;;;;14.33;64.02;99677.13;105843;1277;24013;-88
2022/09/06 01:02:11;;;;;;;9.10;3.00;;;;;;;14.36;64.20;99676.34;105954;1277;22551;-87
2022/09/06 01:04:41;;;;;;;9.30;3.10;;;;;;;14.39;64.15;99669.18;105897;1276;24234;-89
2022/09/06 01:07:37;;;;;;;10.70;3.00;;;;;;;14.39;64.06;99665.22;105920;1276;25500;-90
2022/09/06 01:10:38;;;;;;;7.40;2.90;;;;;;;14.34;64.16;99659.48;105975;1277;22715;-88
2022/09/06 01:13:21;;;;;;;9.10;3.50;;;;;;;14.31;64.20;99661.34;105959;1277;24421;-90
2022/09/06 01:16:22;;;;;;;10.00;3.40;;;;;;;14.28;64.33;99657.30;106013;1276;25553;-87
2022/09/06 01:19:12;;;;;;;8.20;3.30;;;;;;;14.26;64.39;99655.48;105965;1276;22693;-87
2022/09/06 01:22:17;;;;;;;8.40;3.10;;;;;;;14.22;64.35;99654.00;105962;1276;22696;-89
2022/09/06 01:24:52;;;;;;;10.40;3.30;;;;;;;14.21;64.55;99656.95;105889;1277;22711;-89
2022/09/06 01:28:05;;;;;;;7.50;3.00;;;;;;;14.20;64.50;99664.52;106006;1276;25228;-87
2022/09/06 01:30:45;;;;;;;8.30;3.30;;;;;;;14.21;64.67;99668.55;105907;1277;22599;-88
2022/09/06 01:33:19;;;;;;;10.00;3.50;;;;;;;14.22;64.76;99661.34;105962;1277;24240;-86
2022/09/06 01:36:00;;;;;;;10.20;3.70;;;;;;;14.20;64.77;99652.73;105868;1279;22715;-88
2022/09/06 01:38:33;;;;;;;10.50;3.70;;;;;;;14.17;64.76;99653.48;105952;1276;22771;-87
2022/09/06 01:41:02;;;;;;;10.10;4.00;;;;;;;14.13;64.81;99648.63;105860;1276;22843;-87
2022/09/06 01:43:38;;;;;;;9.80;3.90;;;;;;;14.13;64.93;99643.61;105815;1276;23882;-87
2022/09/06 01:46:18;;;;;;;9.00;3.30;;;;;;;14.13;64.96;99640.02;105839;1279;22568;-89
2022/09/06 01:49:05;;;;;;;9.40;4.00;;;;;;;14.14;64.99;99639.38;105880;1276;22548;-89
2022/09/06 01:52:10;;;;;;;9.60;3.60;;;;;;;14.18;65.13;99638.94;105899;1276;22557;-90
2022/09/06 01:54:49;;;;;;;9.50;4.00;;;;;;;14.22;65.23;99644.88;105873;1276;22562;-89
2022/09/06 01:57:47;;;;;;;11.30;4.50;;;;;;;14.22;65.30;99648.76;105906;1276;22704;-91
2022/09/06 02:00:28;;;;;;;9.70;4.60;;;;;;;14.23;65.27;99646.55;105920;1279;25546;-90
2022/09/06 02:03:27;;;;;;;10.00;4.30;;;;;;;14.23;65.35;99642.46;105897;1276;25334;-89
2022/09/06 02:06:29;;;;;;;10.60;4.20;;;;;;;14.24;65.35;99638.08;105955;1276;22542;-89
2022/09/06 02:09:11;;;;;;;9.70;4.20;;;;;;;14.26;65.44;99639.86;105974;1277;24953;-88
2022/09/06 02:11:50;;;;;;;12.20;4.40;;;;;;;14.31;65.58;99642.92;105809;1280;25369;-87
2022/09/06 02:14:32;;;;;;;10.50;4.20;;;;;;;14.35;65.61;99643.68;105913;1276;25465;-88
2022/09/06 02:17:10;;;;;;;9.90;4.60;;;;;;;14.38;65.69;99642.20;105793;1277;22542;-88
2022/09/06 02:19:52;;;;;;;11.70;4.50;;;;;;;14.40;65.70;99639.31;105927;1277;25232;-89
2022/09/06 02:22:39;;;;;;;10.40;4.70;;;;;;;14.40;65.68;99633.63;105922;1277;25456;-88
2022/09/06 02:25:10;;;;;;;10.80;4.60;;;;;;;14.39;65.62;99629.58;105992;1276;25374;-87
2022/09/06 02:27:48;;;;;;;10.60;4.60;;;;;;;14.40;65.80;99627.16;105921;1277;22634;-89
2022/09/06 02:30:33;;;;;;;10.50;4.60;;;;;;;14.44;65.96;99628.05;105857;1277;22829;-89
2022/09/06 02:33:14;;;;;;;11.30;4.50;;;;;;;14.48;65.83;99628.51;105995;1277;22541;-87
2022/09/06 02:36:01;;;;;;;11.50;4.90;;;;;;;14.51;66.05;99627.05;105970;1277;25450;-88
2022/09/06 02:38:45;;;;;;;10.60;4.70;;;;;;;14.52;66.02;99625.19;106022;1276;25369;-88
2022/09/06 02:41:23;;;;;;;9.10;4.70;;;;;;;14.50;66.03;99627.10;105892;1277;22564;-88
2022/09/06 02:43:57;;;;;;;10.90;5.40;;;;;;;14.49;66.11;99624.86;105970;1276;22790;-89
2022/09/06 02:46:41;;;;;;;11.50;5.30;;;;;;;14.48;66.11;99626.73;105890;1279;25352;-87
2022/09/06 02:49:13;;;;;;;9.20;5.00;;;;;;;14.46;66.09;99621.65;105931;1277;22549;-89
2022/09/06 02:51:51;;;;;;;11.10;5.00;;;;;;;14.44;66.15;99621.09;105880;1276;25504;-89
2022/09/06 02:54:32;;;;;;;9.90;4.40;;;;;;;14.45;66.23;99623.02;105903;1277;22613;-90
2022/09/06 02:57:09;;;;;;;10.30;5.00;;;;;;;14.47;66.33;99617.70;105881;1277;22574;-88
2022/09/06 02:59:51;;;;;;;10.00;5.00;;;;;;;14.48;66.29;99614.23;105856;1277;22583;-89
2022/09/06 03:02:30;;;;;;;12.00;5.40;;;;;;;14.45;66.37;99615.52;105946;1276;25565;-88
2022/09/06 03:05:10;;;;;;;;;;;;;;;;;;;;;
2022/09/06 03:08:04;;;;;;;9.30;4.90;;;;;;;14.35;66.50;99617.72;105939;1276;22540;-88
2022/09/06 03:11:12;;;;;;;;;;;;;;;;;;;;;
2022/09/06 03:13:55;;;;;;;12.60;4.90;;;;;;;14.36;66.57;99611.50;105910;1276;24258;-90
2022/09/06 03:17:32;;;;;;;11.60;5.30;;;;;;;14.39;66.69;99610.62;105870;1276;22557;-92
2022/09/06 03:19:39;;;;;;;10.50;5.00;;;;;;;14.40;66.72;99611.08;105923;1277;22559;-88
2022/09/06 03:22:21;;;;;;;12.00;5.40;;;;;;;14.36;66.72;99612.23;105619;1277;22712;-90
2022/09/06 03:25:07;;;;;;;11.40;4.40;;;;;;;14.30;66.79;99618.40;105922;1276;22553;-89
2022/09/06 03:27:42;;;;;;;10.30;4.60;;;;;;;14.26;66.74;99612.64;105892;1277;25243;-89
2022/09/06 03:30:24;;;;;;;;;;;;;;;;;;;;;
2022/09/06 03:33:00;;;;;;;14.30;3.70;;;;;;;14.21;66.86;99603.56;105878;1277;25375;-89
2022/09/06 03:35:45;;;;;;;9.80;3.70;;;;;;;14.22;66.96;99598.52;105837;1276;22704;-87
2022/09/06 03:38:50;;;;;;;;;;;;;;;;;;;;;
2022/09/06 03:42:24;;;;;;;;;;;;;;;;;;;;;
2022/09/06 03:45:11;;;;;;;8.80;3.80;;;;;;;14.22;67.01;99596.19;105969;1277;24441;-91
2022/09/06 03:48:01;;;;;;;8.50;3.90;;;;;;;14.18;66.90;99595.95;105965;1277;25242;-88
2022/09/06 03:51:07;;;;;;;8.80;3.80;;;;;;;14.12;66.98;99594.79;106070;1277;26507;-90
2022/09/06 03:53:52;;;;;;;8.40;3.60;;;;;;;14.04;67.01;99597.75;105978;1276;25538;-88
2022/09/06 03:56:30;;;;;;;8.60;3.50;;;;;;;13.97;66.97;99602.45;106025;1276;22604;-90
2022/09/06 03:59:05;;;;;;;8.20;3.90;;;;;;;13.97;67.22;99604.91;105990;1277;22613;-90
2022/09/06 04:01:43;;;;;;;10.30;3.80;;;;;;;13.99;67.30;99600.96;105915;1277;22785;-90
2022/09/06 04:04:45;;;;;;;8.00;3.60;;;;;;;14.02;67.32;99598.11;105890;1276;25564;-89
2022/09/06 04:07:20;;;;;;;8.80;3.70;;;;;;;14.01;67.36;99598.67;105984;1277;22540;-88
2022/09/06 04:09:54;;;;;;;8.20;3.50;;;;;;;13.99;67.25;99595.80;105731;1277;22556;-90
2022/09/06 04:13:15;;;;;;;9.70;3.70;;;;;;;13.96;67.34;99596.36;105954;1277;22503;-88
2022/09/06 04:15:37;;;;;;;8.80;3.40;;;;;;;13.95;67.42;99598.64;105946;1277;22708;-88
2022/09/06 04:18:14;;;;;;;8.90;3.20;;;;;;;13.97;67.45;99601.88;106023;1277;25502;-88
2022/09/06 04:21:47;;;;;;;;;;;;;;;;;;;;;
2022/09/06 04:24:29;;;;;;;9.10;3.60;;;;;;;13.98;67.51;99595.73;105986;1277;22566;-89
2022/09/06 04:26:57;;;;;;;8.60;3.50;;;;;;;13.96;67.46;99597.85;105768;1277;25291;-88
2022/09/06 04:29:30;;;;;;;8.70;3.80;;;;;;;13.95;67.52;99598.30;105996;1276;25478;-86
2022/09/06 04:32:14;;;;;;;10.30;3.80;;;;;;;13.93;67.68;99597.02;105903;1276;25337;-88
2022/09/06 04:34:41;;;;;;;11.60;3.10;;;;;;;13.92;67.65;99590.45;105840;1279;25504;-87
2022/09/06 04:37:11;;;;;;;11.50;3.70;;;;;;;13.92;67.69;99589.39;105962;1278;22562;-89
2022/09/06 04:39:38;;;;;;;10.10;3.20;;;;;;;13.93;67.63;99587.84;105865;1279;23317;-90
2022/09/06 04:42:11;;;;;;;9.60;3.90;;;;;;;13.88;67.42;99589.54;105872;1279;22566;-89
2022/09/06 04:44:41;;;;;;;8.50;3.40;;;;;;;13.85;67.54;99591.04;105834;1278;24300;-93
2022/09/06 04:47:17;;;;;;;9.30;3.20;;;;;;;13.84;67.79;99593.23;105922;1280;22541;-90
2022/09/06 04:49:52;;;;;;;8.60;3.60;;;;;;;13.86;67.83;99592.89;105872;1279;22636;-92
2022/09/06 04:52:19;;;;;;;10.70;3.80;;;;;;;13.88;67.90;99595.79;105798;1280;22534;-88
2022/09/06 04:54:51;;;;;;;11.50;3.90;;;;;;;13.77;67.45;99605.02;105849;1279;22559;-90
2022/09/06 04:57:22;;;;;;;9.50;3.70;;;;;;;13.55;67.27;99617.39;105919;1279;25664;-87
2022/09/06 04:59:49;;;;;;;19.20;8.60;;;;;;;13.34;67.42;99627.44;105843;1279;22643;-90
2022/09/06 05:02:16;;;;;;;16.00;6.30;;;;;;;13.19;67.50;99637.45;105919;1280;23285;-89
2022/09/06 05:04:52;;;;;;;14.80;4.90;;;;;;;13.12;67.81;99642.58;105871;1279;24225;-89
2022/09/06 05:07:21;;;;;;;14.70;4.10;;;;;;;13.15;67.88;99646.83;105920;1279;22721;-89
2022/09/06 05:09:52;;;;;;;11.10;4.10;;;;;;;13.13;67.91;99644.45;105818;1279;25242;-90
2022/09/06 05:12:21;;;;;;;14.60;4.20;;;;;;;13.17;68.14;99642.42;105956;1278;24290;-93
2022/09/06 05:14:56;;;;;;;11.50;4.30;;;;;;;13.25;68.32;99636.34;105934;1279;22649;-88
2022/09/06 05:17:28;;;;;;;12.80;3.60;;;;;;;13.33;68.27;99630.02;106061;1277;22560;-93
2022/09/06 05:20:04;;;;;;;11.50;3.50;;;;;;;13.38;68.36;99623.00;105877;1280;22830;-91
2022/09/06 05:22:39;;;;;;;14.70;4.20;;;;;;;13.42;68.26;99621.80;105962;1277;22537;-89
2022/09/06 05:25:09;;;;;;;11.70;4.90;;;;;;;13.47;68.42;99625.70;105682;1277;22553;-88
2022/09/06 05:27:48;;;;;;;33.90;14.90;;;;;;;13.51;68.32;99627.41;105929;1277;22609;-89
2022/09/06 05:30:16;;;;;;;30.40;16.60;;;;;;;13.52;68.32;99625.70;105879;1279;22541;-91
2022/09/06 05:32:50;;;;;;;32.70;16.40;;;;;;;13.52;68.24;99632.33;105932;1277;24371;-87
2022/09/06 05:35:25;;;;;;;26.40;11.10;;;;;;;13.45;68.22;99639.80;105888;1277;23953;-87
2022/09/06 05:38:11;;;;;;;20.40;8.30;;;;;;;13.37;68.22;99642.02;105980;1277;23978;-90
2022/09/06 05:40:40;;;;;;;12.40;5.20;;;;;;;13.29;68.27;99641.53;105828;1279;23353;-88
2022/09/06 05:43:10;;;;;;;12.80;4.10;;;;;;;13.28;68.55;99638.42;105888;1276;24393;-86
2022/09/06 05:45:38;;;;;;;11.80;4.10;;;;;;;13.31;68.65;99627.87;106001;1277;23071;-87
2022/09/06 05:48:08;;;;;;;11.50;4.20;;;;;;;13.36;68.76;99629.03;105616;1277;24387;-88
2022/09/06 05:50:41;;;;;;;12.90;3.90;;;;;;;13.45;68.73;99623.04;105795;1281;24083;-89
2022/09/06 05:53:13;;;;;;;11.40;4.30;;;;;;;13.53;68.64;99618.30;105915;1277;24441;-90
2022/09/06 05:55:45;;;;;;;13.10;4.10;;;;;;;13.56;68.66;99616.83;106096;1276;25199;-86
2022/09/06 05:58:19;;;;;;;11.20;4.10;;;;;;;13.58;68.67;99616.11;105837;1277;24294;-90
2022/09/06 06:00:52;;;;;;;12.90;3.90;;;;;;;13.62;68.69;99616.76;105939;1277;25408;-88
2022/09/06 06:03:22;;;;;;;11.00;3.30;;;;;;;13.64;68.56;99624.80;105817;1279;22560;-88
2022/09/06 06:05:52;;;;;;;12.40;3.70;;;;;;;13.64;68.56;99622.63;105838;1280;25319;-88
2022/09/06 06:08:35;;;;;;;;;;;;;;;;;;;;;
2022/09/06 06:11:05;;;;;;;16.80;4.20;;;;;;;13.69;68.65;99623.52;105834;1280;25066;-88
2022/09/06 06:13:35;;;;;;;15.40;3.80;;;;;;;13.74;68.79;99630.67;105838;1278;24418;-89
2022/09/06 06:16:24;;;;;;;11.70;3.80;;;;;;;13.77;68.74;99637.36;105897;1280;22540;-89
2022/09/06 06:18:56;;;;;;;12.20;4.00;;;;;;;13.80;68.75;99636.66;105806;1280;22987;-87
2022/09/06 06:21:32;;;;;;;12.80;3.60;;;;;;;13.83;68.75;99637.00;105925;1279;22560;-87
2022/09/06 06:24:15;;;;;;;11.60;3.30;;;;;;;13.86;68.79;99629.73;105643;1279;25508;-86
2022/09/06 06:26:45;;;;;;;13.00;3.30;;;;;;;13.91;68.77;99624.52;105781;1280;22579;-87
2022/09/06 06:29:14;;;;;;;11.20;3.20;;;;;;;13.97;68.82;99625.70;105858;1278;22559;-88
2022/09/06 06:31:44;;;;;;;10.40;3.10;;;;;;;13.99;68.69;99624.08;105689;1279;22607;-89
2022/09/06 06:34:16;;;;;;;9.30;3.70;;;;;;;14.02;68.89;99622.98;105840;1279;23290;-85
2022/09/06 06:36:52;;;;;;;8.70;3.60;;;;;;;14.04;68.94;99619.91;105840;1279;23910;-88
2022/09/06 06:39:48;;;;;;;8.50;3.80;;;;;;;14.08;68.93;99619.48;105847;1277;23201;-89
2022/09/06 06:42:28;;;;;;;8.90;3.00;;;;;;;14.13;69.00;99620.84;105954;1277;24271;-88
2022/09/06 06:44:58;;;;;;;9.50;3.60;;;;;;;14.24;69.12;99618.90;106015;1276;22525;-88
2022/09/06 06:47:27;;;;;;;9.80;3.10;;;;;;;14.35;69.01;99626.86;105817;1276;26486;-86
2022/09/06 06:50:12;;;;;;;10.70;3.80;;;;;;;14.44;68.84;99626.17;105867;1280;24341;-90
2022/09/06 06:52:42;;;;;;;8.40;2.90;;;;;;;14.54;68.99;99630.73;105974;1277;24257;-91
2022/09/06 06:55:12;;;;;;;10.40;3.10;;;;;;;14.61;69.08;99630.14;105795;1280;22681;-88
2022/09/06 06:57:41;;;;;;;11.80;3.80;;;;;;;14.68;68.99;99626.04;105761;1280;22572;-91
2022/09/06 07:00:29;;;;;;;11.40;4.80;;;;;;;14.71;69.06;99626.70;105829;1280;22552;-88
2022/09/06 07:03:02;;;;;;;14.50;5.20;;;;;;;14.75;69.07;99624.92;106053;1280;22558;-89
2022/09/06 07:05:59;;;;;;;13.90;5.30;;;;;;;14.79;69.19;99619.39;105815;1278;22546;-88
2022/09/06 07:08:42;;;;;;;10.90;4.30;;;;;;;14.87;69.23;99612.86;105901;1278;22724;-87
2022/09/06 07:11:19;;;;;;;12.20;4.90;;;;;;;14.94;69.04;99621.08;105743;1280;25338;-88
2022/09/06 07:14:02;;;;;;;11.60;4.40;;;;;;;15.00;69.16;99622.91;105817;1278;23957;-87
2022/09/06 07:16:30;;;;;;;10.80;3.80;;;;;;;15.07;69.03;99630.92;105762;1279;22541;-90
2022/09/06 07:19:19;;;;;;;13.80;3.90;;;;;;;15.12;69.18;99634.82;105889;1277;25290;-88
2022/09/06 07:21:57;;;;;;;8.20;3.40;;;;;;;15.22;69.27;99633.33;105917;1277;25356;-87
2022/09/06 07:25:15;;;;;;;10.70;3.60;;;;;;;15.32;69.17;99631.17;106021;1277;22604;-91
2022/09/06 07:28:05;;;;;;;;;;;;;;;;;;;;;
2022/09/06 07:31:00;;;;;;;12.80;4.00;;;;;;;15.60;68.97;99632.80;105900;1278;22714;-88
2022/09/06 07:34:11;;;;;;;;;;;;;;;;;;;;;
2022/09/06 07:37:06;;;;;;;10.60;3.70;;;;;;;15.90;69.46;99629.08;106005;1277;24363;-92
2022/09/06 07:39:38;;;;;;;12.30;4.00;;;;;;;16.05;69.33;99623.84;105907;1276;22563;-87
2022/09/06 07:42:50;;;;;;;9.90;3.90;;;;;;;16.12;69.20;99618.54;105937;1277;22524;-88
2022/09/06 07:45:18;;;;;;;7.80;3.20;;;;;;;16.18;69.20;99620.14;105984;1278;24412;-92
2022/09/06 07:47:57;;;;;;;9.30;3.50;;;;;;;16.26;69.28;99620.94;106031;1276;22553;-89
2022/09/06 07:50:45;;;;;;;15.20;4.10;;;;;;;16.52;69.24;99626.36;106011;1277;23988;-87
2022/09/06 07:53:38;;;;;;;11.30;3.50;;;;;;;16.81;69.06;99625.66;106028;1280;22538;-91
2022/09/06 07:56:08;;;;;;;12.50;4.30;;;;;;;17.12;69.12;99615.31;106036;1278;22624;-88
2022/09/06 07:58:39;;;;;;;11.70;4.30;;;;;;;17.40;69.04;99616.75;106049;1277;22629;-88
2022/09/06 08:01:53;;;;;;;;;;;;;;;;;;;;;
2022/09/06 08:04:55;;;;;;;12.80;4.30;;;;;;;17.67;68.76;99615.28;106029;1277;25369;-87
2022/09/06 08:07:29;;;;;;;13.80;4.20;;;;;;;17.73;68.71;99608.84;105943;1276;24403;-86
2022/09/06 08:09:57;;;;;;;15.30;4.50;;;;;;;17.76;68.57;99607.86;105905;1277;23830;-89
2022/09/06 08:12:28;;;;;;;13.90;4.40;;;;;;;17.77;68.61;99604.63;105824;1281;22484;-88
2022/09/06 08:14:58;;;;;;;11.70;4.60;;;;;;;17.85;68.70;99607.88;105788;1280;22549;-89
2022/09/06 08:17:30;;;;;;;11.00;4.30;;;;;;;17.95;68.69;99608.43;105904;1280;26583;-87
2022/09/06 08:20:02;;;;;;;15.20;4.30;;;;;;;18.05;68.72;99608.50;105845;1278;24289;-89
2022/09/06 08:22:32;;;;;;;10.40;4.60;;;;;;;18.18;68.76;99607.85;105873;1278;25339;-86
2022/09/06 08:25:02;;;;;;;10.80;4.50;;;;;;;18.30;68.61;99607.62;105923;1278;22536;-85
2022/09/06 08:27:29;;;;;;;10.50;4.90;;;;;;;18.38;68.57;99601.78;105974;1277;24291;-88
2022/09/06 08:29:56;;;;;;;17.40;4.60;;;;;;;18.48;68.75;99601.19;105893;1277;22540;-87
2022/09/06 08:32:29;;;;;;;12.20;4.80;;;;;;;18.61;68.76;99602.27;105894;1277;24267;-86
2022/09/06 08:35:04;;;;;;;10.50;4.30;;;;;;;18.74;68.71;99601.37;105914;1276;24208;-86
2022/09/06 08:37:35;;;;;;;10.20;4.30;;;;;;;18.77;68.55;99602.94;105835;1277;25285;-86
2022/09/06 08:40:05;;;;;;;11.40;4.30;;;;;;;18.79;68.58;99601.30;105969;1277;22554;-82
2022/09/06 08:42:38;;;;;;;10.20;4.60;;;;;;;18.77;68.43;99602.52;105993;1277;22653;-86
2022/09/06 08:45:11;;;;;;;11.50;5.00;;;;;;;18.73;68.40;99604.85;105884;1277;22556;-86
2022/09/06 08:47:38;;;;;;;11.30;5.10;;;;;;;18.75;68.44;99608.00;106036;1277;22833;-84
2022/09/06 08:50:06;;;;;;;11.40;4.60;;;;;;;18.69;68.22;99609.45;105777;1281;22695;-90
2022/09/06 08:52:48;;;;;;;11.10;4.60;;;;;;;18.65;68.34;99610.89;105895;1278;22559;-86
2022/09/06 08:55:43;;;;;;;8.70;4.80;;;;;;;18.63;68.28;99611.81;105952;1280;25494;-87
2022/09/06 08:58:51;;;;;;;10.20;5.00;;;;;;;18.60;68.43;99614.45;105851;1277;22556;-85
2022/09/06 09:01:24;;;;;;;11.40;4.70;;;;;;;18.59;68.45;99614.34;106032;1277;22538;-88
2022/09/06 09:03:57;;;;;;;8.90;4.20;;;;;;;18.63;68.61;99611.45;106045;1276;22560;-91
2022/09/06 09:06:30;;;;;;;11.20;4.60;;;;;;;18.71;68.72;99614.09;106017;1276;22502;-87
2022/09/06 09:09:11;;;;;;;10.70;4.10;;;;;;;18.77;68.59;99612.13;105945;1277;25250;-88
2022/09/06 09:11:42;;;;;;;12.60;4.80;;;;;;;18.83;68.58;99610.99;105917;1277;22545;-85
2022/09/06 09:14:15;;;;;;;10.90;4.80;;;;;;;18.81;68.41;99603.38;106065;1276;22542;-90
2022/09/06 09:17:05;;;;;;;9.20;4.20;;;;;;;18.82;68.46;99599.58;106011;1277;24089;-87
2022/09/06 09:19:40;;;;;;;10.80;4.70;;;;;;;18.84;68.37;99593.70;106040;1277;22647;-87
2022/09/06 09:22:27;;;;;;;10.70;4.20;;;;;;;18.91;68.63;99587.24;105926;1276;25435;-83
2022/09/06 09:25:05;;;;;;;10.50;4.40;;;;;;;18.98;68.40;99580.33;106029;1277;25550;-85
2022/09/06 09:27:32;;;;;;;9.70;4.40;;;;;;;19.04;68.22;99570.85;105996;1277;22703;-84
2022/09/06 09:30:05;;;;;;;11.20;4.00;;;;;;;19.09;67.87;99566.91;105966;1276;22686;-83
2022/09/06 09:32:37;;;;;;;9.80;4.30;;;;;;;19.14;67.77;99563.36;105999;1278;25311;-83
2022/09/06 09:35:21;;;;;;;10.40;4.30;;;;;;;19.21;67.88;99555.73;106052;1277;24292;-86
2022/09/06 09:38:15;;;;;;;10.10;4.60;;;;;;;19.25;67.67;99548.53;106011;1277;25347;-84
2022/09/06 09:41:08;;;;;;;9.20;4.10;;;;;;;19.23;67.79;99543.08;105245;1285;22640;-85
2022/09/06 09:43:41;;;;;;;8.60;4.10;;;;;;;19.40;68.00;99538.52;105257;1285;22737;-84
2022/09/06 09:46:14;;;;;;;9.70;4.30;;;;;;;19.76;67.93;99532.29;105446;1285;24302;-89
2022/09/06 09:49:10;;;;;;;9.80;4.10;;;;;;;20.08;67.62;99527.94;105267;1285;23988;-83
2022/09/06 09:51:46;;;;;;;13.20;4.30;;;;;;;20.38;67.45;99526.25;105133;1285;22580;-82
2022/09/06 09:54:29;;;;;;;11.60;3.40;;;;;;;20.70;67.55;99527.38;105116;1286;22623;-85
2022/09/06 09:56:56;;;;;;;11.20;3.70;;;;;;;21.07;67.72;99532.19;105177;1285;24418;-86
2022/09/06 09:59:35;;;;;;;10.30;4.00;;;;;;;21.41;67.30;99530.56;105267;1285;25458;-79
2022/09/06 10:02:21;;;;;;;8.90;3.80;;;;;;;21.57;66.60;99536.48;105294;1285;22573;-83
2022/09/06 10:04:52;;;;;;;8.90;3.90;;;;;;;21.50;66.50;99538.39;105133;1285;24606;-87
2022/09/06 10:07:22;;;;;;;10.00;3.70;;;;;;;21.39;66.56;99533.72;105304;1285;22557;-85
2022/09/06 10:10:03;;;;;;;11.40;3.70;;;;;;;21.35;66.82;99530.39;105335;1285;22548;-87
2022/09/06 10:12:34;;;;;;;11.40;3.80;;;;;;;21.40;66.41;99523.30;105214;1285;22642;-87
2022/09/06 10:15:02;;;;;;;10.60;3.90;;;;;;;21.44;66.77;99523.91;105014;1285;22575;-86
2022/09/06 10:17:34;;;;;;;9.30;3.70;;;;;;;21.51;66.68;99524.36;105339;1281;25620;-84
2022/09/06 10:20:07;;;;;;;8.10;3.30;;;;;;;21.60;66.63;99520.85;105827;1280;23400;-84
2022/09/06 10:23:02;;;;;;;8.30;3.40;;;;;;;21.66;66.56;99520.35;106036;1278;22573;-84
2022/09/06 10:25:37;;;;;;;8.70;3.50;;;;;;;21.66;66.03;99522.39;106026;1278;25686;-78
2022/09/06 10:28:09;;;;;;;9.60;3.60;;;;;;;21.65;66.33;99518.66;105903;1278;22845;-84
2022/09/06 10:30:44;;;;;;;8.50;3.30;;;;;;;21.67;66.38;99518.65;105918;1281;22594;-83
2022/09/06 10:33:45;;;;;;;9.90;3.40;;;;;;;21.72;66.16;99520.63;105931;1277;25272;-81
2022/09/06 10:36:18;;;;;;;8.60;3.10;;;;;;;21.76;65.96;99516.00;105943;1277;22695;-80
2022/09/06 10:39:08;;;;;;;10.50;3.70;;;;;;;21.72;65.77;99517.30;105806;1277;24314;-83
2022/09/06 10:41:53;;;;;;;7.80;3.10;;;;;;;21.70;66.00;99515.86;105940;1281;25557;-83
2022/09/06 10:44:49;;;;;;;8.00;3.40;;;;;;;21.79;65.64;99518.55;105959;1278;25465;-83
2022/09/06 10:47:33;;;;;;;10.50;3.20;;;;;;;21.83;65.85;99516.09;106003;1278;22581;-86
2022/09/06 10:50:04;;;;;;;6.90;3.20;;;;;;;21.92;65.75;99516.92;106025;1277;22541;-83
2022/09/06 10:52:37;;;;;;;8.40;3.20;;;;;;;21.94;65.47;99514.36;105992;1277;23961;-83
2022/09/06 10:55:09;;;;;;;9.90;3.40;;;;;;;21.88;65.16;99512.32;105898;1278;24393;-84
2022/09/06 10:57:44;;;;;;;8.30;3.20;;;;;;;21.76;65.24;99509.58;105773;1281;22562;-83
2022/09/06 11:00:13;;;;;;;7.30;2.90;;;;;;;21.69;65.24;99512.06;105831;1280;24418;-87
2022/09/06 11:03:13;;;;;;;7.80;3.50;;;;;;;21.64;65.09;99510.80;105873;1278;22560;-84
2022/09/06 11:05:45;;;;;;;10.30;3.30;;;;;;;21.52;65.08;99513.92;105863;1277;22656;-85
2022/09/06 11:08:48;;;;;;;8.30;3.30;;;;;;;21.45;65.06;99511.58;105854;1277;22757;-81
2022/09/06 11:11:57;;;;;;;10.20;3.40;;;;;;;21.38;65.14;99511.52;105021;1287;22589;-85
2022/09/06 11:14:27;;;;;;;9.80;3.30;;;;;;;21.29;64.94;99505.55;105126;1288;22645;-78
2022/09/06 11:17:14;;;;;;;9.60;3.40;;;;;;;21.17;64.81;99507.48;105245;1287;24261;-85
2022/09/06 11:20:17;;;;;;;7.40;3.20;;;;;;;21.08;64.91;99509.88;105167;1287;25324;-83
2022/09/06 11:23:22;;;;;;;8.90;3.50;;;;;;;20.95;64.77;99509.78;105070;1287;22817;-78
2022/09/06 11:26:52;;;;;;;9.60;3.10;;;;;;;20.85;64.74;99504.79;105014;1287;22544;-84
2022/09/06 11:29:25;;;;;;;8.90;3.40;;;;;;;20.88;64.78;99502.48;105063;1287;22545;-83
2022/09/06 11:31:57;;;;;;;10.20;3.70;;;;;;;21.00;64.83;99499.34;105124;1287;22582;-85
2022/09/06 11:34:49;;;;;;;;;;;;;;;;;;;;;
2022/09/06 11:37:31;;;;;;;12.80;2.70;;;;;;;21.31;64.50;99498.86;105143;1287;22559;-86
2022/09/06 11:40:27;;;;;;;9.80;3.20;;;;;;;21.61;64.60;99498.61;105152;1286;25265;-82
2022/09/06 11:42:58;;;;;;;8.20;2.90;;;;;;;21.93;64.09;99501.53;105176;1287;22570;-85
2022/09/06 11:45:59;;;;;;;10.70;3.40;;;;;;;22.03;64.41;99495.13;105253;1287;25262;-85
2022/09/06 11:49:49;;;;;;;9.10;3.10;;;;;;;22.17;64.01;99487.48;105822;1278;25534;-82
2022/09/06 11:53:11;;;;;;;8.40;2.80;;;;;;;22.23;63.63;99487.90;105486;1284;22729;-84
2022/09/06 11:56:47;;;;;;;7.60;3.20;;;;;;;22.34;64.16;99485.68;105441;1284;22582;-86
2022/09/06 11:59:07;;;;;;;9.30;3.30;;;;;;;22.52;63.87;99481.42;105271;1284;22642;-84
2022/09/06 12:02:03;;;;;;;7.60;2.90;;;;;;;22.59;63.34;99476.39;105159;1284;25885;-84
2022/09/06 12:05:05;;;;;;;11.90;3.60;;;;;;;22.69;63.66;99479.03;105235;1284;22771;-84
2022/09/06 12:07:44;;;;;;;9.70;3.30;;;;;;;22.82;63.34;99478.82;105220;1284;23061;-76
2022/09/06 12:10:29;;;;;;;8.90;3.10;;;;;;;22.74;63.18;99480.75;105134;1287;22553;-83
2022/09/06 12:13:00;;;;;;;9.50;3.00;;;;;;;22.44;62.53;99477.06;105328;1284;24239;-87
2022/09/06 12:15:28;;;;;;;7.30;3.30;;;;;;;22.19;62.63;99475.60;105259;1284;22559;-80
2022/09/06 12:17:59;;;;;;;7.70;3.00;;;;;;;22.00;62.50;99477.52;105595;1284;22746;-84
2022/09/06 12:21:04;;;;;;;8.70;2.90;;;;;;;21.86;62.77;99475.69;105491;1284;23923;-82
2022/09/06 12:23:43;;;;;;;7.90;2.90;;;;;;;21.69;62.65;99473.09;103949;1284;1729072;-85
2022/09/06 12:26:11;;;;;;;8.20;2.90;;;;;;;21.63;62.87;99471.02;105647;1284;22546;-88
2022/09/06 12:28:50;;;;;;;10.50;3.00;;;;;;;21.60;62.84;99464.27;105574;1284;22655;-87
2022/09/06 12:32:02;;;;;;;7.60;3.20;;;;;;;21.69;63.00;99461.98;105860;1284;25394;-83
2022/09/06 12:34:37;;;;;;;8.60;2.80;;;;;;;21.94;62.84;99457.63;104781;1290;22636;-85
2022/09/06 12:37:11;;;;;;;10.30;2.70;;;;;;;22.04;62.71;99448.79;104608;1290;22848;-83